Time;durP1;ratioP1;P1;durP2;ratioP2;P2;SDS_P1;SDS_P2;PMS_P1;PMS_P2;Temp;Humidity;BMP_temperature;BMP_pressure;BME280_temperature;BME280_humidity;BME280_pressure;Samples;Min_cycle;Max_cycle;Signal;HPM_P1;HPM_P2
2022/10/21 00:00:18;;;;;;;13.27;8.13;;;15.80;99.90;;;;;;5056882;28;20454;-81
2022/10/21 00:02:44;;;;;;;15.03;10.60;;;15.80;99.90;;;;;;5057182;28;20451;-81
2022/10/21 00:05:11;;;;;;;11.60;9.87;;;15.70;99.90;;;;;;5057359;28;20550;-81
2022/10/21 00:07:38;;;;;;;18.10;10.07;;;15.70;99.90;;;;;;5057146;28;20448;-81
2022/10/21 00:10:06;;;;;;;15.03;10.77;;;15.70;99.90;;;;;;5056887;28;20461;-80
2022/10/21 00:12:35;;;;;;;12.33;9.57;;;15.70;99.90;;;;;;5056375;28;20476;-82
2022/10/21 00:15:02;;;;;;;12.50;10.30;;;15.60;99.90;;;;;;5076916;28;20535;-81
2022/10/21 00:17:29;;;;;;;14.00;9.00;;;15.60;99.90;;;;;;5076871;28;20459;-81
2022/10/21 00:19:56;;;;;;;12.27;9.70;;;15.60;99.90;;;;;;5076294;28;20471;-82
2022/10/21 00:22:23;;;;;;;12.97;9.63;;;15.60;99.90;;;;;;5075832;28;20930;-81
2022/10/21 00:24:50;;;;;;;15.60;9.13;;;15.60;99.90;;;;;;5076741;28;20445;-81
2022/10/21 00:27:17;;;;;;;14.60;10.50;;;15.60;99.90;;;;;;5075833;28;20537;-81
2022/10/21 00:29:45;;;;;;;10.80;9.00;;;15.50;99.90;;;;;;5074668;28;20550;-82
2022/10/21 00:32:12;;;;;;;13.93;9.37;;;15.50;99.90;;;;;;5076596;28;20494;-82
2022/10/21 00:34:41;;;;;;;15.83;10.23;;;15.50;99.90;;;;;;5076622;28;20448;-80
2022/10/21 00:37:09;;;;;;;13.10;9.67;;;15.60;99.90;;;;;;5075999;28;20498;-82
2022/10/21 00:39:35;;;;;;;14.47;10.53;;;15.50;99.90;;;;;;5075003;28;20481;-83
2022/10/21 00:42:02;;;;;;;13.63;9.00;;;15.50;99.90;;;;;;5076115;28;20465;-81
2022/10/21 00:44:31;;;;;;;10.33;8.27;;;15.50;99.90;;;;;;5076082;28;20449;-81
2022/10/21 00:47:02;;;;;;;14.83;9.43;;;15.50;99.90;;;;;;5075258;28;20458;-81
2022/10/21 00:49:37;;;;;;;13.30;8.53;;;15.50;99.90;;;;;;5075254;28;20485;-80
2022/10/21 00:52:08;;;;;;;13.00;10.47;;;15.40;99.90;;;;;;5075783;28;20477;-80
2022/10/21 00:54:36;;;;;;;14.80;9.20;;;15.40;99.90;;;;;;5075456;28;20451;-80
2022/10/21 00:57:03;;;;;;;14.53;10.67;;;15.40;99.90;;;;;;5076383;28;20544;-80
2022/10/21 00:59:34;;;;;;;11.70;9.40;;;15.40;99.90;;;;;;5074997;28;20472;-79
2022/10/21 01:02:03;;;;;;;12.03;9.10;;;15.40;99.90;;;;;;5058933;28;20452;-80
2022/10/21 01:04:30;;;;;;;10.73;8.80;;;15.40;99.90;;;;;;5055784;28;20457;-80
2022/10/21 01:06:57;;;;;;;15.20;10.00;;;15.40;99.90;;;;;;5055902;28;20455;-80
2022/10/21 01:09:25;;;;;;;11.80;8.57;;;15.40;99.90;;;;;;5054926;28;20475;-81
2022/10/21 01:11:52;;;;;;;10.47;8.80;;;15.30;99.90;;;;;;5054973;28;20484;-82
2022/10/21 01:14:46;;;;;;;14.00;10.17;;;15.30;99.90;;;;;;5058755;28;20451;-81
2022/10/21 01:17:28;;;;;;;14.93;9.40;;;15.30;99.90;;;;;;5075366;28;20449;-81
2022/10/21 01:20:43;;;;;;;12.10;8.50;;;15.20;99.90;;;;;;5075793;28;20476;-81
2022/10/21 01:23:33;;;;;;;11.27;8.60;;;15.20;99.90;;;;;;5014765;28;20432;-81
2022/10/21 01:26:34;;;;;;;13.20;9.37;;;15.20;99.90;;;;;;5076584;28;20457;-81
2022/10/21 01:29:21;;;;;;;11.57;8.90;;;15.20;99.90;;;;;;5075611;28;20468;-81
2022/10/21 01:31:57;;;;;;;12.90;8.17;;;15.20;99.90;;;;;;5060221;28;20487;-81
2022/10/21 01:34:28;;;;;;;13.40;8.17;;;15.20;99.90;;;;;;5056565;28;20914;-81
2022/10/21 01:36:58;;;;;;;10.33;8.13;;;15.20;99.90;;;;;;5066358;28;20451;-81
2022/10/21 01:39:29;;;;;;;11.17;7.77;;;15.20;99.90;;;;;;5075190;28;20873;-81
2022/10/21 01:42:05;;;;;;;8.97;7.90;;;15.20;99.90;;;;;;5075314;28;20440;-82
2022/10/21 01:44:38;;;;;;;10.77;9.00;;;15.20;99.90;;;;;;5075638;28;20434;-81
2022/10/21 01:47:11;;;;;;;9.80;8.60;;;15.10;99.90;;;;;;5075528;28;20464;-81
2022/10/21 01:49:42;;;;;;;11.77;8.13;;;15.00;99.90;;;;;;5072951;28;20485;-82
2022/10/21 01:52:10;;;;;;;9.83;8.10;;;15.00;99.90;;;;;;5055320;28;20856;-81
2022/10/21 01:54:40;;;;;;;10.80;9.40;;;15.00;99.90;;;;;;5055135;28;20457;-81
2022/10/21 01:57:09;;;;;;;13.40;8.77;;;15.00;99.90;;;;;;5055381;28;20459;-81
2022/10/21 01:59:38;;;;;;;10.83;9.53;;;14.90;99.90;;;;;;5055149;28;20472;-81
2022/10/21 02:02:07;;;;;;;9.53;7.90;;;14.90;99.90;;;;;;5055723;28;20458;-82
2022/10/21 02:04:36;;;;;;;10.17;8.07;;;14.80;99.90;;;;;;5055442;28;20452;-84
2022/10/21 02:07:03;;;;;;;13.80;9.00;;;14.80;99.90;;;;;;5056117;28;20462;-81
2022/10/21 02:09:30;;;;;;;11.67;8.60;;;14.80;99.90;;;;;;5054314;28;21077;-80
2022/10/21 02:12:01;;;;;;;9.00;7.90;;;14.70;99.90;;;;;;5054940;28;20464;-81
2022/10/21 02:14:32;;;;;;;11.43;7.80;;;14.70;99.90;;;;;;5054351;28;21156;-81
2022/10/21 02:17:00;;;;;;;11.73;8.57;;;14.60;99.90;;;;;;5054845;28;20446;-80
2022/10/21 02:19:29;;;;;;;11.20;7.50;;;14.60;99.90;;;;;;5053859;28;20471;-80
2022/10/21 02:22:00;;;;;;;11.73;8.73;;;14.60;99.90;;;;;;5055111;28;20459;-80
2022/10/21 02:24:33;;;;;;;8.93;6.80;;;14.60;99.90;;;;;;5074680;28;20810;-81
2022/10/21 02:27:00;;;;;;;10.40;8.10;;;14.50;99.90;;;;;;5074510;28;20954;-80
2022/10/21 02:29:32;;;;;;;7.90;6.67;;;14.50;99.90;;;;;;5074131;28;20471;-81
2022/10/21 02:32:14;;;;;;;10.63;8.20;;;14.40;99.90;;;;;;5074623;28;20800;-81
2022/10/21 02:34:55;;;;;;;10.03;7.63;;;14.40;99.90;;;;;;5074655;28;20443;-80
2022/10/21 02:37:31;;;;;;;10.47;7.67;;;14.40;99.90;;;;;;5074344;28;20457;-80
2022/10/21 02:40:04;;;;;;;9.37;7.53;;;14.30;99.90;;;;;;5071885;28;20464;-81
2022/10/21 02:42:35;;;;;;;11.90;6.80;;;14.30;99.90;;;;;;5074345;28;20421;-81
2022/10/21 02:45:03;;;;;;;10.70;6.90;;;14.30;99.90;;;;;;5074358;28;20451;-80
2022/10/21 02:47:30;;;;;;;9.90;6.90;;;14.30;99.90;;;;;;5073528;28;20820;-81
2022/10/21 02:49:58;;;;;;;8.50;7.20;;;14.20;99.90;;;;;;5073637;28;21020;-82
2022/10/21 02:52:25;;;;;;;9.67;8.17;;;14.20;99.90;;;;;;5073693;28;20493;-81
2022/10/21 02:54:52;;;;;;;9.33;7.57;;;14.20;99.90;;;;;;5069348;28;20459;-81
2022/10/21 02:57:18;;;;;;;8.57;7.67;;;14.10;99.90;;;;;;5053638;28;20983;-82
2022/10/21 02:59:45;;;;;;;9.20;7.07;;;14.20;99.90;;;;;;5053368;28;20477;-81
2022/10/21 03:02:12;;;;;;;8.73;6.93;;;14.10;99.90;;;;;;5054602;28;20465;-83
2022/10/21 03:04:42;;;;;;;11.10;7.90;;;14.10;99.90;;;;;;5053546;28;20462;-80
2022/10/21 03:07:10;;;;;;;9.00;7.00;;;14.10;99.90;;;;;;5053379;28;20452;-81
2022/10/21 03:09:36;;;;;;;8.63;7.67;;;14.00;99.90;;;;;;5049563;28;21163;-80
2022/10/21 03:12:03;;;;;;;8.77;7.63;;;14.00;99.90;;;;;;5059701;28;20458;-81
2022/10/21 03:14:30;;;;;;;9.97;7.10;;;14.00;99.90;;;;;;5053657;28;20466;-80
2022/10/21 03:16:57;;;;;;;11.37;7.87;;;13.90;99.90;;;;;;5053796;28;20461;-81
2022/10/21 03:19:24;;;;;;;8.07;7.10;;;13.90;99.90;;;;;;5053161;28;20476;-81
2022/10/21 03:21:50;;;;;;;8.00;7.00;;;13.90;99.90;;;;;;5053372;28;20457;-80
2022/10/21 03:24:18;;;;;;;8.33;6.87;;;13.80;99.90;;;;;;5053385;28;20456;-81
2022/10/21 03:26:45;;;;;;;9.73;7.20;;;13.80;99.90;;;;;;5053990;28;20458;-81
2022/10/21 03:29:12;;;;;;;10.60;7.17;;;13.80;99.90;;;;;;5053735;28;20485;-80
2022/10/21 03:31:39;;;;;;;10.57;6.47;;;13.80;99.90;;;;;;5053822;28;20441;-81
2022/10/21 03:34:06;;;;;;;8.40;6.80;;;13.70;99.90;;;;;;5055263;28;20490;-80
2022/10/21 03:36:32;;;;;;;9.67;6.60;;;13.70;99.90;;;;;;5057348;28;20462;-81
2022/10/21 03:38:59;;;;;;;11.37;6.83;;;13.60;99.90;;;;;;5056583;28;20492;-82
2022/10/21 03:41:27;;;;;;;9.50;7.00;;;13.60;99.90;;;;;;5055687;28;20457;-82
2022/10/21 03:43:54;;;;;;;8.70;6.40;;;13.60;99.90;;;;;;5058592;28;20445;-82
2022/10/21 03:46:21;;;;;;;7.80;5.80;;;13.50;99.90;;;;;;5057139;28;20962;-81
2022/10/21 03:48:47;;;;;;;14.70;7.13;;;13.50;99.90;;;;;;5057088;28;20512;-81
2022/10/21 03:51:14;;;;;;;7.03;5.87;;;13.50;99.90;;;;;;5056907;28;20482;-81
2022/10/21 03:53:41;;;;;;;7.10;5.10;;;13.50;99.90;;;;;;5056858;28;20484;-81
2022/10/21 03:56:08;;;;;;;7.73;6.07;;;13.50;99.90;;;;;;5056304;28;20448;-81
2022/10/21 03:58:36;;;;;;;6.80;4.73;;;13.40;99.90;;;;;;5055918;28;20470;-81
2022/10/21 04:01:03;;;;;;;8.67;5.57;;;13.50;99.90;;;;;;5057369;28;20452;-83
2022/10/21 04:03:30;;;;;;;7.33;5.60;;;13.50;99.90;;;;;;5056924;28;20458;-81
2022/10/21 04:05:57;;;;;;;6.30;5.03;;;13.40;99.90;;;;;;5056518;28;20457;-81
2022/10/21 04:08:23;;;;;;;10.80;5.17;;;13.50;99.90;;;;;;5056438;28;20481;-82
2022/10/21 04:10:50;;;;;;;5.93;4.30;;;13.50;99.90;;;;;;5056643;28;21005;-81
2022/10/21 04:13:17;;;;;;;5.43;4.00;;;13.60;99.90;;;;;;5056622;28;20593;-79
2022/10/21 04:15:45;;;;;;;8.20;4.20;;;13.60;99.90;;;;;;5056406;28;20956;-81
2022/10/21 04:18:12;;;;;;;7.93;4.57;;;13.60;99.90;;;;;;5057788;28;20478;-80
2022/10/21 04:20:39;;;;;;;8.63;4.60;;;13.60;99.90;;;;;;5056072;28;20454;-81
2022/10/21 04:23:06;;;;;;;5.20;4.20;;;13.60;99.90;;;;;;5056352;28;20454;-81
2022/10/21 04:25:32;;;;;;;6.50;3.83;;;13.60;99.90;;;;;;5056139;28;20461;-82
2022/10/21 04:27:59;;;;;;;4.17;3.70;;;13.70;99.90;;;;;;5056207;28;20485;-82
2022/10/21 04:30:26;;;;;;;6.73;3.73;;;13.70;99.90;;;;;;5056600;28;20506;-82
2022/10/21 04:32:54;;;;;;;5.03;3.90;;;13.70;99.90;;;;;;5057430;28;20479;-81
2022/10/21 04:35:21;;;;;;;7.63;4.67;;;13.70;99.90;;;;;;5057062;28;20456;-81
2022/10/21 04:37:48;;;;;;;6.20;3.87;;;13.70;99.90;;;;;;5056186;28;20468;-82
2022/10/21 04:40:15;;;;;;;4.93;3.53;;;13.70;99.90;;;;;;5078351;22;20971;-82
2022/10/21 04:42:41;;;;;;;5.10;4.07;;;13.70;99.90;;;;;;5075262;28;20431;-81
2022/10/21 04:45:09;;;;;;;5.40;3.70;;;13.80;99.90;;;;;;5077282;28;20538;-80
2022/10/21 04:47:36;;;;;;;8.20;3.77;;;13.80;99.90;;;;;;5078346;28;20454;-81
2022/10/21 04:50:05;;;;;;;5.47;3.43;;;13.80;99.90;;;;;;5078128;28;20481;-83
2022/10/21 04:52:31;;;;;;;6.37;3.20;;;13.80;99.90;;;;;;5077877;28;20447;-82
2022/10/21 04:54:58;;;;;;;5.13;3.77;;;13.80;99.90;;;;;;5071553;28;20458;-81
2022/10/21 04:57:25;;;;;;;4.83;3.00;;;13.80;99.90;;;;;;5063672;28;20448;-81
2022/10/21 04:59:52;;;;;;;4.57;3.50;;;13.90;99.90;;;;;;5058037;28;20469;-81
2022/10/21 05:02:19;;;;;;;4.37;3.20;;;13.90;99.90;;;;;;5059389;28;20447;-82
2022/10/21 05:04:45;;;;;;;5.37;3.70;;;13.90;99.90;;;;;;5070707;28;20449;-85
2022/10/21 05:07:14;;;;;;;5.10;3.67;;;13.90;99.90;;;;;;5077501;28;20534;-82
2022/10/21 05:09:40;;;;;;;5.10;3.70;;;13.90;99.90;;;;;;5077889;28;20453;-81
2022/10/21 05:12:07;;;;;;;5.23;3.40;;;14.00;99.90;;;;;;5078161;28;20454;-81
2022/10/21 05:14:34;;;;;;;6.00;3.30;;;13.90;99.90;;;;;;5078021;28;20491;-82
2022/10/21 05:17:01;;;;;;;4.33;3.30;;;14.00;99.90;;;;;;5069698;28;20490;-82
2022/10/21 05:19:28;;;;;;;6.50;3.97;;;14.00;99.90;;;;;;5077243;28;20527;-81
2022/10/21 05:21:55;;;;;;;4.87;3.80;;;14.00;99.90;;;;;;5077701;28;20471;-82
2022/10/21 05:24:23;;;;;;;5.10;3.27;;;14.00;99.90;;;;;;5077081;28;20447;-81
2022/10/21 05:26:50;;;;;;;7.97;3.60;;;14.10;99.90;;;;;;5078359;28;20550;-81
2022/10/21 05:29:17;;;;;;;7.30;3.80;;;14.10;99.90;;;;;;5078330;28;20458;-80
2022/10/21 05:31:44;;;;;;;4.80;3.13;;;14.10;99.90;;;;;;5077797;28;20994;-81
2022/10/21 05:34:11;;;;;;;6.73;3.47;;;14.20;99.90;;;;;;5077157;28;20496;-81
2022/10/21 05:36:38;;;;;;;6.30;3.80;;;14.20;99.90;;;;;;5077911;28;20450;-85
2022/10/21 05:39:07;;;;;;;5.47;3.63;;;14.20;99.90;;;;;;5077666;28;20454;-83
2022/10/21 05:41:35;;;;;;;5.90;3.20;;;14.30;99.90;;;;;;5078125;28;20553;-85
2022/10/21 05:44:02;;;;;;;3.90;3.27;;;14.30;99.90;;;;;;5077106;28;20543;-80
2022/10/21 05:46:29;;;;;;;7.63;3.10;;;14.30;99.90;;;;;;5077766;28;20464;-82
2022/10/21 05:48:56;;;;;;;4.93;3.30;;;14.30;99.90;;;;;;5077353;28;20518;-82
2022/10/21 05:51:25;;;;;;;6.53;3.57;;;14.30;99.90;;;;;;5080277;28;20455;-81
2022/10/21 05:53:52;;;;;;;7.83;4.13;;;14.30;99.90;;;;;;5080687;28;20483;-81
2022/10/21 05:56:19;;;;;;;5.83;3.30;;;14.40;99.90;;;;;;5081121;28;20463;-81
2022/10/21 05:58:47;;;;;;;5.63;3.03;;;14.30;99.90;;;;;;5080769;28;20451;-84
2022/10/21 06:01:14;;;;;;;3.80;2.90;;;14.30;99.90;;;;;;5081576;28;20503;-82
2022/10/21 06:03:41;;;;;;;6.13;3.30;;;14.30;99.90;;;;;;5082406;28;20454;-80
2022/10/21 06:06:09;;;;;;;4.50;3.40;;;14.30;99.90;;;;;;5076233;28;20834;-82
2022/10/21 06:08:38;;;;;;;3.93;2.60;;;14.30;99.90;;;;;;5078256;28;20450;-82
2022/10/21 06:11:06;;;;;;;3.77;3.37;;;14.30;99.90;;;;;;5079570;28;20486;-81
2022/10/21 06:13:34;;;;;;;5.03;3.20;;;14.30;99.90;;;;;;5080546;28;20496;-82
2022/10/21 06:16:03;;;;;;;3.70;2.87;;;14.30;99.90;;;;;;5077409;28;20472;-82
2022/10/21 06:21:28;;;;;;;4.30;2.93;;;14.20;99.90;;;;;;5072590;28;20558;-81
2022/10/21 06:23:55;;;;;;;3.63;2.50;;;14.20;99.90;;;;;;5066333;28;20450;-83
2022/10/21 06:26:22;;;;;;;6.33;2.70;;;14.20;99.90;;;;;;5077644;28;20461;-82
2022/10/21 06:28:58;;;;;;;3.67;2.93;;;14.20;99.90;;;;;;5074110;28;20823;-80
2022/10/21 06:31:26;;;;;;;4.80;2.80;;;14.20;99.90;;;;;;5076369;28;20473;-82
2022/10/21 06:33:53;;;;;;;5.23;3.20;;;14.20;99.90;;;;;;5079109;28;20493;-80
2022/10/21 06:36:20;;;;;;;3.93;2.60;;;14.20;99.90;;;;;;5079414;28;20545;-80
2022/10/21 06:38:47;;;;;;;3.93;2.40;;;14.20;99.90;;;;;;5078126;28;20552;-82
2022/10/21 06:41:14;;;;;;;4.60;2.70;;;14.20;99.90;;;;;;5072082;28;20473;-81
2022/10/21 06:43:43;;;;;;;5.40;2.60;;;14.20;99.90;;;;;;5059981;28;20564;-81
2022/10/21 06:46:12;;;;;;;3.87;3.33;;;14.20;99.90;;;;;;5078201;28;20527;-80
2022/10/21 06:48:40;;;;;;;7.87;3.50;;;14.20;99.90;;;;;;5075549;28;20461;-80
2022/10/21 06:51:10;;;;;;;8.83;3.60;;;14.20;99.90;;;;;;5070483;28;20475;-82
2022/10/21 06:53:52;;;;;;;5.23;3.00;;;14.20;99.90;;;;;;5066297;28;20505;-80
2022/10/21 06:56:19;;;;;;;6.80;3.60;;;14.30;99.90;;;;;;5068079;28;20621;-81
2022/10/21 06:58:48;;;;;;;4.67;3.13;;;14.30;99.90;;;;;;5067600;28;20454;-82
2022/10/21 07:01:17;;;;;;;4.30;3.00;;;14.30;99.90;;;;;;5069962;28;20486;-80
2022/10/21 07:03:45;;;;;;;5.30;3.30;;;14.30;99.90;;;;;;5068948;28;20557;-81
2022/10/21 07:06:12;;;;;;;3.50;2.83;;;14.30;99.90;;;;;;5066343;28;20450;-80
2022/10/21 07:08:39;;;;;;;4.70;2.90;;;14.40;99.90;;;;;;5074876;28;20456;-81
2022/10/21 07:11:06;;;;;;;3.30;2.67;;;14.40;99.90;;;;;;5082039;28;20473;-81
2022/10/21 07:13:35;;;;;;;4.73;3.40;;;14.40;99.90;;;;;;5094289;28;20514;-82
2022/10/21 07:16:03;;;;;;;4.57;2.40;;;14.40;99.90;;;;;;5077636;28;20823;-83
2022/10/21 07:18:30;;;;;;;4.07;2.70;;;14.50;99.90;;;;;;5081058;28;20458;-81
2022/10/21 07:21:04;;;;;;;2.83;2.40;;;14.50;99.90;;;;;;5078434;28;20484;-82
2022/10/21 07:23:31;;;;;;;4.50;3.40;;;14.50;99.90;;;;;;5079363;28;20449;-83
2022/10/21 07:25:58;;;;;;;3.20;2.60;;;14.50;99.90;;;;;;5084916;28;20504;-82
2022/10/21 07:28:25;;;;;;;5.30;3.20;;;14.60;99.90;;;;;;5077794;28;20463;-83
2022/10/21 07:30:52;;;;;;;4.37;3.30;;;14.60;99.90;;;;;;5084166;28;20477;-82
2022/10/21 07:33:19;;;;;;;5.83;2.30;;;14.70;99.90;;;;;;5080532;28;20466;-82
2022/10/21 07:35:46;;;;;;;5.03;3.17;;;14.70;99.90;;;;;;5078682;28;20538;-83
2022/10/21 07:38:14;;;;;;;4.43;3.23;;;14.70;99.90;;;;;;5079961;28;20538;-81
2022/10/21 07:40:41;;;;;;;3.60;3.10;;;14.80;99.90;;;;;;5076556;28;20515;-80
2022/10/21 07:43:09;;;;;;;6.53;2.70;;;14.80;99.90;;;;;;5078213;28;20538;-82
2022/10/21 07:45:40;;;;;;;5.27;2.63;;;14.80;99.90;;;;;;5084706;28;20445;-82
2022/10/21 07:48:06;;;;;;;5.50;3.40;;;14.90;99.90;;;;;;5079530;28;20963;-80
2022/10/21 07:50:33;;;;;;;3.50;2.80;;;14.90;99.90;;;;;;5079646;28;20483;-80
2022/10/21 07:53:03;;;;;;;8.07;3.63;;;15.00;99.90;;;;;;5075328;28;20475;-82
2022/10/21 07:55:31;;;;;;;5.13;3.27;;;15.00;99.90;;;;;;5076670;28;20492;-82
2022/10/21 07:57:58;;;;;;;4.00;3.00;;;15.00;99.90;;;;;;5082071;28;20588;-82
2022/10/21 08:00:25;;;;;;;4.67;3.67;;;15.10;99.90;;;;;;5071745;28;20466;-82
2022/10/21 08:02:54;;;;;;;4.30;2.73;;;15.20;99.90;;;;;;5085444;28;20527;-82
2022/10/21 08:05:24;;;;;;;3.80;3.20;;;15.10;99.90;;;;;;5085405;28;20501;-82
2022/10/21 08:07:51;;;;;;;5.33;3.10;;;15.20;99.90;;;;;;5083201;28;20474;-82
2022/10/21 08:10:18;;;;;;;4.47;2.97;;;15.20;99.90;;;;;;5082998;28;20573;-81
2022/10/21 08:12:46;;;;;;;5.10;3.70;;;15.30;99.90;;;;;;5069382;28;20465;-82
2022/10/21 08:15:13;;;;;;;4.37;3.40;;;15.40;99.90;;;;;;5086706;28;20488;-82
2022/10/21 08:17:40;;;;;;;5.63;2.80;;;15.40;99.90;;;;;;5082804;28;20523;-83
2022/10/21 08:20:08;;;;;;;4.43;3.63;;;15.40;99.90;;;;;;5078144;28;20474;-82
2022/10/21 08:22:35;;;;;;;6.20;3.57;;;15.50;99.90;;;;;;5084382;28;20523;-81
2022/10/21 08:25:01;;;;;;;10.07;3.40;;;15.50;99.90;;;;;;5079193;28;20535;-83
2022/10/21 08:27:29;;;;;;;4.30;3.50;;;15.60;99.90;;;;;;5082285;28;20459;-80
2022/10/21 08:29:57;;;;;;;3.90;3.30;;;15.60;99.90;;;;;;5083316;28;20525;-83
2022/10/21 08:32:24;;;;;;;5.43;3.70;;;15.60;99.90;;;;;;5087626;28;20676;-82
2022/10/21 08:34:50;;;;;;;4.03;3.17;;;15.70;99.90;;;;;;5084980;28;20475;-81
2022/10/21 08:37:17;;;;;;;4.30;3.37;;;15.70;99.90;;;;;;5086462;28;20540;-81
2022/10/21 08:39:45;;;;;;;4.73;3.10;;;15.70;99.90;;;;;;5083888;28;20531;-83
2022/10/21 08:42:16;;;;;;;5.17;4.13;;;15.70;99.90;;;;;;5084316;28;20447;-82
2022/10/21 08:44:47;;;;;;;6.73;3.97;;;15.70;99.90;;;;;;5084935;28;20429;-80
2022/10/21 08:47:22;;;;;;;4.77;3.40;;;15.70;99.90;;;;;;5084677;28;20469;-84
2022/10/21 08:52:38;;;;;;;5.30;3.47;;;15.80;99.90;;;;;;5095153;22;20540;-83
2022/10/21 08:55:23;;;;;;;4.53;3.80;;;15.80;99.90;;;;;;5079424;28;20478;-81
2022/10/21 08:57:52;;;;;;;5.00;3.63;;;15.80;99.90;;;;;;5077322;28;20785;-81
2022/10/21 09:00:21;;;;;;;4.90;3.67;;;15.80;99.90;;;;;;5081515;28;20551;-82
2022/10/21 09:03:09;;;;;;;6.10;3.50;;;15.80;99.90;;;;;;5087171;28;20518;-82
2022/10/21 09:05:55;;;;;;;8.00;4.83;;;15.80;99.90;;;;;;5074880;28;20474;-82
2022/10/21 09:08:26;;;;;;;4.60;3.27;;;15.80;99.90;;;;;;5083454;28;20457;-81
2022/10/21 09:11:01;;;;;;;6.63;3.67;;;15.80;99.90;;;;;;5082028;28;20492;-80
2022/10/21 09:13:58;;;;;;;5.30;3.33;;;15.80;99.90;;;;;;5082872;28;20463;-79
2022/10/21 09:16:36;;;;;;;6.90;3.30;;;15.90;99.90;;;;;;5075180;28;20468;-80
2022/10/21 09:19:16;;;;;;;6.10;3.43;;;15.90;99.90;;;;;;5078448;28;20446;-80
2022/10/21 09:21:58;;;;;;;5.30;3.57;;;15.90;99.90;;;;;;5073222;28;20547;-79
2022/10/21 09:24:34;;;;;;;7.53;3.20;;;15.90;99.90;;;;;;5074984;28;20485;-79
2022/10/21 09:27:03;;;;;;;8.50;3.80;;;15.90;99.90;;;;;;5080785;28;20457;-80
2022/10/21 09:29:32;;;;;;;6.67;4.63;;;16.00;99.90;;;;;;5076525;28;20454;-81
2022/10/21 09:32:10;;;;;;;7.97;3.80;;;15.90;99.90;;;;;;5079061;28;20477;-80
2022/10/21 09:34:47;;;;;;;7.53;3.87;;;15.90;99.90;;;;;;5078424;28;20509;-79
2022/10/21 09:37:24;;;;;;;10.40;4.70;;;15.90;99.90;;;;;;5076423;28;20502;-81
2022/10/21 09:40:07;;;;;;;5.83;4.33;;;15.90;99.90;;;;;;5078159;28;20460;-82
2022/10/21 09:42:34;;;;;;;4.97;3.50;;;15.90;99.90;;;;;;5089113;28;20452;-81
2022/10/21 09:45:17;;;;;;;7.83;4.40;;;15.90;99.90;;;;;;5094567;28;21027;-79
2022/10/21 09:47:46;;;;;;;8.10;4.00;;;16.00;99.90;;;;;;5081986;28;20454;-81
2022/10/21 09:50:17;;;;;;;5.90;3.87;;;16.00;99.90;;;;;;5060301;28;20476;-84
2022/10/21 09:52:58;;;;;;;5.23;3.73;;;16.00;99.90;;;;;;5076334;28;20455;-81
2022/10/21 09:55:25;;;;;;;4.90;3.90;;;16.00;99.90;;;;;;5065120;28;20613;-82
2022/10/21 09:57:57;;;;;;;5.43;3.67;;;16.00;99.90;;;;;;5075262;28;20458;-83
2022/10/21 10:00:41;;;;;;;8.53;4.23;;;16.00;99.90;;;;;;5077414;28;20845;-82
2022/10/21 10:03:12;;;;;;;6.80;4.80;;;16.00;99.90;;;;;;5076196;28;20960;-81
2022/10/21 10:05:47;;;;;;;8.77;5.10;;;16.00;99.90;;;;;;5076561;28;20447;-82
2022/10/21 10:08:26;;;;;;;5.77;3.60;;;16.00;99.90;;;;;;5075694;28;20455;-84
2022/10/21 10:11:02;;;;;;;5.70;4.43;;;16.00;99.90;;;;;;5058600;28;20477;-82
2022/10/21 10:13:32;;;;;;;7.70;3.80;;;16.10;99.90;;;;;;5076654;28;20564;-83
2022/10/21 10:16:15;;;;;;;6.43;4.17;;;16.10;99.90;;;;;;5077843;28;20478;-84
2022/10/21 10:18:44;;;;;;;5.60;3.90;;;16.10;99.90;;;;;;5078803;28;20818;-84
2022/10/21 10:21:14;;;;;;;5.73;3.30;;;16.10;99.90;;;;;;5077821;28;20470;-80
2022/10/21 10:23:47;;;;;;;9.60;5.20;;;16.10;99.90;;;;;;5078904;28;20914;-82
2022/10/21 10:26:27;;;;;;;4.63;3.97;;;16.10;99.90;;;;;;5080356;28;20452;-81
2022/10/21 10:28:56;;;;;;;4.37;3.90;;;16.10;99.90;;;;;;5078657;28;20451;-81
2022/10/21 10:31:26;;;;;;;8.10;4.93;;;16.10;99.90;;;;;;5076930;28;20472;-80
2022/10/21 10:33:57;;;;;;;5.90;4.50;;;16.10;99.90;;;;;;5083338;28;20946;-81
2022/10/21 10:36:29;;;;;;;9.60;4.47;;;16.10;99.90;;;;;;5076824;28;20493;-81
2022/10/21 10:39:00;;;;;;;10.10;5.40;;;16.20;99.90;;;;;;5076873;28;20461;-82
2022/10/21 10:41:33;;;;;;;9.67;4.80;;;16.20;99.90;;;;;;5078348;28;20481;-82
2022/10/21 10:44:02;;;;;;;5.07;4.10;;;16.20;99.90;;;;;;5076002;28;20449;-81
2022/10/21 10:46:30;;;;;;;6.97;4.60;;;16.10;99.90;;;;;;5077389;28;20445;-81
2022/10/21 10:49:03;;;;;;;7.60;4.27;;;16.10;99.90;;;;;;5077779;28;20447;-82
2022/10/21 10:51:33;;;;;;;7.07;4.50;;;16.10;99.90;;;;;;5076888;28;20479;-82
2022/10/21 10:54:03;;;;;;;5.40;4.20;;;16.10;99.90;;;;;;5076765;28;20547;-82
2022/10/21 10:56:35;;;;;;;6.70;4.07;;;16.20;99.90;;;;;;5067545;28;20491;-81
2022/10/21 10:59:13;;;;;;;9.20;4.40;;;16.20;99.90;;;;;;5073370;28;20464;-82
2022/10/21 11:01:46;;;;;;;8.30;5.00;;;16.20;99.90;;;;;;5078274;28;20865;-83
2022/10/21 11:04:17;;;;;;;5.80;4.30;;;16.20;99.90;;;;;;5077116;28;20474;-83
2022/10/21 11:06:59;;;;;;;6.70;4.17;;;16.20;99.90;;;;;;5077285;28;20453;-83
2022/10/21 11:09:29;;;;;;;7.10;4.90;;;16.20;99.90;;;;;;5076738;28;20466;-83
2022/10/21 11:12:19;;;;;;;7.03;3.93;;;16.20;99.90;;;;;;5078932;28;20497;-83
2022/10/21 11:14:50;;;;;;;5.17;3.60;;;16.10;99.90;;;;;;5079345;28;20458;-84
2022/10/21 11:17:20;;;;;;;8.57;4.13;;;16.10;99.90;;;;;;5080811;28;20560;-82
2022/10/21 11:19:54;;;;;;;8.33;3.43;;;16.10;99.90;;;;;;5079162;28;20482;-83
2022/10/21 11:22:35;;;;;;;12.37;4.70;;;16.10;99.90;;;;;;5065775;28;20459;-84
2022/10/21 11:25:12;;;;;;;5.50;3.50;;;16.10;99.90;;;;;;5080839;28;20903;-84
2022/10/21 11:28:01;;;;;;;4.43;2.63;;;16.00;99.90;;;;;;5070265;28;20523;-80
2022/10/21 11:30:37;;;;;;;5.90;3.30;;;16.00;99.90;;;;;;5091278;28;20532;-82
2022/10/21 11:33:12;;;;;;;7.70;3.60;;;16.00;99.90;;;;;;5074306;28;20547;-84
2022/10/21 11:35:50;;;;;;;7.10;3.70;;;16.00;99.90;;;;;;5029825;28;21195;-83
2022/10/21 11:38:34;;;;;;;5.07;2.77;;;16.00;99.90;;;;;;5067482;28;20454;-82
2022/10/21 11:41:15;;;;;;;3.87;3.10;;;16.10;99.90;;;;;;5084727;28;20487;-84
2022/10/21 11:43:49;;;;;;;4.33;3.43;;;16.10;99.90;;;;;;5079549;28;20499;-85
2022/10/21 11:46:21;;;;;;;3.60;2.60;;;16.10;99.90;;;;;;5081365;28;20513;-83
2022/10/21 11:49:15;;;;;;;6.63;3.07;;;16.10;99.90;;;;;;5084935;28;20473;-84
2022/10/21 11:51:53;;;;;;;4.90;3.03;;;16.20;99.90;;;;;;5076108;28;21072;-82
2022/10/21 11:54:45;;;;;;;4.40;2.40;;;16.30;99.90;;;;;;5079017;28;20471;-81
2022/10/21 11:57:19;;;;;;;5.43;2.97;;;16.30;99.90;;;;;;5082554;28;20540;-83
2022/10/21 11:59:59;;;;;;;4.83;3.37;;;16.40;99.90;;;;;;5082927;28;20531;-84
2022/10/21 12:02:40;;;;;;;4.23;2.53;;;16.40;99.90;;;;;;5080662;28;20453;-85
2022/10/21 12:05:27;;;;;;;6.03;3.10;;;16.50;99.90;;;;;;5081317;28;20470;-83
2022/10/21 12:08:12;;;;;;;3.80;3.23;;;16.50;99.90;;;;;;5082227;28;21061;-83
2022/10/21 12:10:49;;;;;;;3.43;2.63;;;16.60;99.90;;;;;;5067768;28;20504;-83
2022/10/21 12:13:21;;;;;;;4.60;2.57;;;16.70;99.90;;;;;;5080373;28;20524;-82
2022/10/21 12:15:54;;;;;;;4.63;2.53;;;16.70;99.90;;;;;;5081887;28;20515;-82
2022/10/21 12:18:23;;;;;;;4.20;2.70;;;16.70;99.90;;;;;;5082623;28;20460;-84
2022/10/21 12:20:52;;;;;;;4.53;3.20;;;16.80;99.90;;;;;;5082991;28;20477;-83
2022/10/21 12:23:24;;;;;;;2.93;2.40;;;16.90;99.90;;;;;;5082367;28;20523;-82
2022/10/21 12:26:03;;;;;;;2.77;2.10;;;16.90;99.90;;;;;;5082531;28;20517;-82
2022/10/21 12:28:35;;;;;;;3.80;2.33;;;16.90;99.90;;;;;;5081067;28;20530;-81
2022/10/21 12:31:25;;;;;;;4.07;2.30;;;17.10;99.90;;;;;;5081595;28;20477;-81
2022/10/21 12:33:53;;;;;;;5.50;2.87;;;17.30;99.90;;;;;;5065272;28;20454;-83
2022/10/21 12:36:38;;;;;;;4.20;2.57;;;17.60;99.90;;;;;;5082711;28;20570;-82
2022/10/21 12:39:11;;;;;;;3.90;2.50;;;17.90;99.90;;;;;;5063663;28;20450;-84
2022/10/21 12:41:40;;;;;;;5.80;2.90;;;18.10;99.90;;;;;;5062904;28;20488;-84
2022/10/21 12:44:20;;;;;;;3.70;2.40;;;18.20;99.90;;;;;;5064202;28;20540;-82
2022/10/21 12:46:49;;;;;;;4.43;2.43;;;18.30;99.90;;;;;;5073479;28;20887;-82
2022/10/21 12:49:23;;;;;;;3.73;2.53;;;18.20;99.90;;;;;;5084110;28;20536;-83
2022/10/21 12:51:54;;;;;;;4.83;3.00;;;18.50;99.90;;;;;;5085109;28;20522;-82
2022/10/21 12:54:24;;;;;;;3.57;2.00;;;19.20;99.90;;;;;;5085400;28;20456;-82
2022/10/21 12:57:00;;;;;;;5.23;2.60;;;20.00;99.90;;;;;;5092209;28;20500;-82
2022/10/21 12:59:31;;;;;;;3.83;2.37;;;20.20;99.90;;;;;;5088105;28;20953;-82
2022/10/21 13:02:24;;;;;;;5.27;2.03;;;20.50;99.90;;;;;;5086387;28;20562;-81
2022/10/21 13:04:53;;;;;;;4.40;2.50;;;21.20;99.90;;;;;;5079127;28;20474;-81
2022/10/21 13:07:37;;;;;;;3.83;1.73;;;21.30;99.90;;;;;;5085074;28;20897;-83